Time;durP1;ratioP1;P1;durP2;ratioP2;P2;SDS_P1;SDS_P2;PMS_P1;PMS_P2;Temp;Humidity;BMP_temperature;BMP_pressure;BME280_temperature;BME280_humidity;BME280_pressure;Samples;Min_cycle;Max_cycle;Signal;HPM_P1;HPM_P2
2024/03/01 00:00:25;;;;;;;15.80;8.95;;;9.80;99.90;;;;;;5044147;28;20219;-77
2024/03/01 00:02:52;;;;;;;11.35;7.85;;;9.80;99.90;;;;;;5037637;28;20210;-79
2024/03/01 00:05:21;;;;;;;10.15;6.53;;;9.80;99.90;;;;;;5041842;28;20228;-77
2024/03/01 00:07:48;;;;;;;7.70;5.45;;;9.80;99.90;;;;;;5041953;28;20234;-79
2024/03/01 00:10:15;;;;;;;6.68;4.82;;;9.70;99.90;;;;;;5042370;28;20312;-76
2024/03/01 00:12:41;;;;;;;6.03;4.15;;;9.70;99.90;;;;;;5043812;28;20222;-75
2024/03/01 00:15:09;;;;;;;4.57;3.70;;;9.70;99.90;;;;;;5041831;28;21342;-81
2024/03/01 00:17:36;;;;;;;4.80;3.40;;;9.70;99.90;;;;;;5039159;28;20257;-78
2024/03/01 00:20:04;;;;;;;4.30;3.60;;;9.70;99.90;;;;;;5043686;28;20218;-83
2024/03/01 00:22:33;;;;;;;3.50;3.20;;;9.70;99.90;;;;;;5040028;28;20909;-75
2024/03/01 00:25:00;;;;;;;4.13;3.10;;;9.70;99.90;;;;;;5041618;28;20281;-79
2024/03/01 00:27:27;;;;;;;4.75;3.58;;;9.70;99.90;;;;;;5041492;28;20285;-84
2024/03/01 00:29:54;;;;;;;2.92;2.63;;;9.70;99.90;;;;;;5042753;28;20251;-77
2024/03/01 00:32:21;;;;;;;3.30;2.85;;;9.70;99.90;;;;;;5040939;28;20230;-76
2024/03/01 00:34:48;;;;;;;2.70;2.30;;;9.70;99.90;;;;;;5041365;28;20258;-76
2024/03/01 00:37:15;;;;;;;3.47;2.70;;;9.70;99.90;;;;;;5043783;28;20874;-77
2024/03/01 00:39:43;;;;;;;3.58;2.70;;;9.80;99.90;;;;;;5045090;28;20227;-82
2024/03/01 00:42:10;;;;;;;2.92;2.60;;;9.80;99.90;;;;;;5045119;28;20223;-78
2024/03/01 00:44:37;;;;;;;2.55;2.13;;;9.80;99.90;;;;;;5044834;28;20253;-79
2024/03/01 00:47:04;;;;;;;2.30;2.20;;;9.80;99.90;;;;;;5041886;28;20306;-83
2024/03/01 00:49:31;;;;;;;2.38;2.20;;;9.80;99.90;;;;;;5047727;28;20270;-78
2024/03/01 00:51:58;;;;;;;4.05;2.78;;;9.70;99.90;;;;;;5045654;28;20282;-85
2024/03/01 00:54:25;;;;;;;4.28;2.53;;;9.70;99.90;;;;;;5046764;28;20210;-75
2024/03/01 00:56:54;;;;;;;3.65;2.33;;;9.70;99.90;;;;;;5042900;28;20295;-78
2024/03/01 00:59:23;;;;;;;2.75;2.33;;;9.70;99.90;;;;;;5035507;28;20218;-78
2024/03/01 01:01:50;;;;;;;2.75;2.55;;;9.70;99.90;;;;;;5042469;28;20219;-76
2024/03/01 01:04:17;;;;;;;2.75;2.55;;;9.70;99.90;;;;;;5042241;28;20203;-78
2024/03/01 01:06:44;;;;;;;4.05;2.75;;;9.70;99.90;;;;;;5041565;28;20250;-79
2024/03/01 01:09:11;;;;;;;2.70;2.50;;;9.70;99.90;;;;;;5038645;28;20314;-75
2024/03/01 01:11:38;;;;;;;4.70;3.00;;;9.70;99.90;;;;;;5039803;28;20225;-80
2024/03/01 01:14:06;;;;;;;3.35;2.80;;;9.70;99.90;;;;;;5043400;28;20200;-76
2024/03/01 01:16:33;;;;;;;3.83;2.70;;;9.70;99.90;;;;;;5038817;28;20223;-78
2024/03/01 01:19:00;;;;;;;2.95;2.40;;;9.70;99.90;;;;;;5042521;28;20219;-77
2024/03/01 01:21:27;;;;;;;3.42;2.58;;;9.70;99.90;;;;;;5035025;28;20619;-81
2024/03/01 01:23:54;;;;;;;3.97;2.83;;;9.70;99.90;;;;;;5040357;28;20204;-78
2024/03/01 01:26:22;;;;;;;5.00;3.33;;;9.60;99.90;;;;;;5040891;28;20222;-78
2024/03/01 01:28:51;;;;;;;3.38;2.58;;;9.60;99.90;;;;;;5039097;28;20219;-74
2024/03/01 01:31:21;;;;;;;2.58;2.20;;;9.70;99.90;;;;;;5039233;28;20246;-76
2024/03/01 01:33:48;;;;;;;3.30;2.58;;;9.70;99.90;;;;;;5042075;28;20284;-79
2024/03/01 01:36:15;;;;;;;4.45;2.80;;;9.70;99.90;;;;;;5035549;28;20281;-75
2024/03/01 01:38:42;;;;;;;3.35;2.97;;;9.60;99.90;;;;;;5040057;28;20219;-77
2024/03/01 01:41:10;;;;;;;3.13;2.85;;;9.70;99.90;;;;;;5039211;28;20905;-76
2024/03/01 01:43:42;;;;;;;3.67;3.33;;;9.60;99.90;;;;;;5041250;28;20200;-76
2024/03/01 01:46:09;;;;;;;2.55;2.35;;;9.60;99.90;;;;;;5033897;28;20287;-76
2024/03/01 01:48:38;;;;;;;6.45;2.78;;;9.50;99.90;;;;;;5037209;28;20956;-75
2024/03/01 01:51:06;;;;;;;2.78;2.50;;;9.50;99.90;;;;;;5037697;28;20220;-77
2024/03/01 01:53:34;;;;;;;2.60;2.40;;;9.50;99.90;;;;;;5041520;28;20214;-81
2024/03/01 01:56:02;;;;;;;3.78;2.83;;;9.50;99.90;;;;;;5033345;28;20227;-83
2024/03/01 01:58:33;;;;;;;2.60;2.38;;;9.50;99.90;;;;;;5038720;28;20292;-78
2024/03/01 02:01:01;;;;;;;3.50;2.67;;;9.50;99.90;;;;;;5039311;28;20227;-78
2024/03/01 02:03:28;;;;;;;3.00;2.80;;;9.50;99.90;;;;;;5044135;28;20199;-79
2024/03/01 02:05:57;;;;;;;3.47;2.70;;;9.40;99.90;;;;;;5038913;28;20783;-75
2024/03/01 02:08:24;;;;;;;3.15;2.58;;;9.40;99.90;;;;;;5039524;28;20230;-76
2024/03/01 02:10:51;;;;;;;5.55;2.80;;;9.30;99.90;;;;;;5040392;28;20242;-76
2024/03/01 02:13:19;;;;;;;4.63;2.92;;;9.30;99.90;;;;;;5038598;28;20230;-77
2024/03/01 02:15:46;;;;;;;4.57;2.47;;;9.30;99.90;;;;;;5038245;28;20699;-78
2024/03/01 02:18:14;;;;;;;3.10;2.60;;;9.30;99.90;;;;;;5035322;28;20225;-78
2024/03/01 02:20:47;;;;;;;2.80;2.53;;;9.30;99.90;;;;;;5037490;28;20218;-77
2024/03/01 02:23:17;;;;;;;3.03;2.20;;;9.30;99.90;;;;;;5038383;28;20229;-75
2024/03/01 02:25:44;;;;;;;4.20;3.08;;;9.30;99.90;;;;;;5035503;28;20219;-77
2024/03/01 02:28:12;;;;;;;3.05;2.60;;;9.30;99.90;;;;;;5037970;28;20266;-77
2024/03/01 02:30:39;;;;;;;3.75;2.67;;;9.20;99.90;;;;;;5036794;28;20229;-82
2024/03/01 02:33:06;;;;;;;3.70;2.75;;;9.20;99.90;;;;;;5038764;28;20264;-75
2024/03/01 02:35:33;;;;;;;3.03;2.72;;;9.20;99.90;;;;;;5039326;28;20813;-80
2024/03/01 02:38:00;;;;;;;2.90;2.70;;;9.20;99.90;;;;;;5042630;28;20245;-77
2024/03/01 02:40:27;;;;;;;2.80;2.60;;;9.20;99.90;;;;;;5043469;28;20624;-82
2024/03/01 02:42:54;;;;;;;2.40;2.20;;;9.20;99.90;;;;;;5043368;28;20226;-78
2024/03/01 02:45:21;;;;;;;2.70;2.50;;;9.20;99.90;;;;;;5042306;28;20313;-74
2024/03/01 02:47:48;;;;;;;3.10;2.90;;;9.20;99.90;;;;;;5043787;28;20791;-78
2024/03/01 02:50:15;;;;;;;3.33;2.72;;;9.20;99.90;;;;;;5040060;28;20227;-76
2024/03/01 02:52:42;;;;;;;3.35;2.85;;;9.20;99.90;;;;;;5039751;28;20239;-74
2024/03/01 02:55:10;;;;;;;2.83;2.53;;;9.20;99.90;;;;;;5041376;28;20255;-78
2024/03/01 02:57:38;;;;;;;2.90;2.67;;;9.30;99.90;;;;;;5041792;28;20250;-77
2024/03/01 03:00:11;;;;;;;2.83;2.63;;;9.30;99.90;;;;;;5045335;28;20231;-85
2024/03/01 03:02:38;;;;;;;2.85;2.25;;;9.20;99.90;;;;;;5041906;28;20234;-76
2024/03/01 03:05:06;;;;;;;4.05;2.80;;;9.20;99.90;;;;;;5043618;28;20658;-77
2024/03/01 03:07:33;;;;;;;2.70;2.15;;;9.20;99.90;;;;;;5044167;28;20235;-83
2024/03/01 03:10:00;;;;;;;3.47;2.65;;;9.20;99.90;;;;;;5044385;28;20296;-75
2024/03/01 03:12:27;;;;;;;3.20;2.90;;;9.20;99.90;;;;;;5044292;28;20585;-78
2024/03/01 03:14:56;;;;;;;3.33;2.17;;;9.20;99.90;;;;;;5045349;28;20226;-80
2024/03/01 03:17:23;;;;;;;2.65;2.45;;;9.20;99.90;;;;;;5041490;28;20344;-77
2024/03/01 03:19:51;;;;;;;2.58;2.38;;;9.20;99.90;;;;;;5043517;28;20231;-75
2024/03/01 03:22:18;;;;;;;3.70;2.80;;;9.20;99.90;;;;;;5040901;28;20226;-76
2024/03/01 03:24:45;;;;;;;5.25;3.00;;;9.20;99.90;;;;;;5045361;28;20237;-77
2024/03/01 03:27:16;;;;;;;3.25;2.67;;;9.20;99.90;;;;;;5043955;28;20729;-74
2024/03/01 03:29:43;;;;;;;3.33;2.35;;;9.10;99.90;;;;;;5039258;28;20219;-74
2024/03/01 03:32:11;;;;;;;3.88;2.60;;;9.10;99.90;;;;;;5039821;28;20239;-79
2024/03/01 03:34:38;;;;;;;2.55;2.35;;;9.20;99.90;;;;;;5044622;28;20231;-78
2024/03/01 03:37:05;;;;;;;4.15;2.88;;;9.20;99.90;;;;;;5050664;28;20821;-77
2024/03/01 03:39:32;;;;;;;5.30;2.50;;;9.20;99.90;;;;;;5039622;28;20219;-78
2024/03/01 03:41:59;;;;;;;2.28;2.08;;;9.20;99.90;;;;;;5044001;28;20221;-79
2024/03/01 03:44:26;;;;;;;2.70;2.50;;;9.20;99.90;;;;;;5040797;28;20227;-76
2024/03/01 03:46:53;;;;;;;2.92;2.47;;;9.20;99.90;;;;;;5042038;28;20276;-76
2024/03/01 03:49:21;;;;;;;2.78;2.55;;;9.20;99.90;;;;;;5044277;28;20214;-77
2024/03/01 03:51:48;;;;;;;2.88;2.58;;;9.20;99.90;;;;;;5044059;28;20270;-77
2024/03/01 03:54:17;;;;;;;3.85;3.03;;;9.20;99.90;;;;;;5043005;28;20226;-78
2024/03/01 03:56:44;;;;;;;3.30;2.40;;;9.20;99.90;;;;;;5039977;28;20220;-77
2024/03/01 03:59:11;;;;;;;4.43;2.72;;;9.20;99.90;;;;;;5045811;28;20710;-75
2024/03/01 04:01:38;;;;;;;3.05;2.75;;;9.20;99.90;;;;;;5042106;28;20238;-81
2024/03/01 04:04:05;;;;;;;4.75;2.83;;;9.20;99.90;;;;;;5040906;28;20195;-79
2024/03/01 04:06:34;;;;;;;3.20;2.70;;;9.20;99.90;;;;;;5043441;28;20257;-77
2024/03/01 04:09:01;;;;;;;3.20;2.55;;;9.20;99.90;;;;;;5038532;28;20234;-75
2024/03/01 04:11:28;;;;;;;2.95;2.65;;;9.20;99.90;;;;;;5040854;28;20423;-75
2024/03/01 04:13:55;;;;;;;2.42;2.22;;;9.20;99.90;;;;;;5040852;28;20195;-74
2024/03/01 04:16:22;;;;;;;3.25;2.80;;;9.10;99.90;;;;;;5044956;28;20229;-76
2024/03/01 04:18:49;;;;;;;3.30;2.55;;;9.10;99.90;;;;;;5042590;28;20306;-75
2024/03/01 04:21:16;;;;;;;3.63;2.58;;;9.10;99.90;;;;;;5037780;28;20251;-77
2024/03/01 04:23:45;;;;;;;3.08;2.40;;;9.10;99.90;;;;;;5044525;28;20289;-74
2024/03/01 04:26:12;;;;;;;2.83;2.53;;;9.10;99.90;;;;;;5038544;28;20262;-78
2024/03/01 04:28:39;;;;;;;3.08;2.50;;;9.10;99.90;;;;;;5041845;28;20254;-76
2024/03/01 04:31:06;;;;;;;2.85;2.53;;;9.20;99.90;;;;;;5042319;28;20445;-80
2024/03/01 04:33:35;;;;;;;3.17;2.90;;;9.10;99.90;;;;;;5049844;28;20207;-76
2024/03/01 04:36:03;;;;;;;3.10;2.63;;;9.20;99.90;;;;;;5046545;28;20953;-77
2024/03/01 04:38:30;;;;;;;4.65;3.08;;;9.20;99.90;;;;;;5047209;28;20223;-76
2024/03/01 04:40:58;;;;;;;4.47;2.85;;;9.20;99.90;;;;;;5045139;28;20219;-77
2024/03/01 04:43:25;;;;;;;5.03;2.92;;;9.20;99.90;;;;;;5041195;28;20220;-78
2024/03/01 04:45:53;;;;;;;5.18;2.83;;;9.20;99.90;;;;;;5047134;28;20250;-78
2024/03/01 04:48:20;;;;;;;2.60;2.30;;;9.20;99.90;;;;;;5043146;28;20937;-75
2024/03/01 04:50:47;;;;;;;3.95;2.83;;;9.20;99.90;;;;;;5041179;28;20210;-84
2024/03/01 04:53:14;;;;;;;2.47;2.25;;;9.20;99.90;;;;;;5042244;28;20226;-78
2024/03/01 04:55:42;;;;;;;3.42;2.83;;;9.20;99.90;;;;;;5044838;28;20258;-74
2024/03/01 04:58:10;;;;;;;3.92;2.92;;;9.20;99.90;;;;;;5045441;28;20223;-75
2024/03/01 05:00:37;;;;;;;3.08;2.47;;;9.20;99.90;;;;;;5043930;28;20300;-75
2024/03/01 05:03:06;;;;;;;3.28;2.58;;;9.20;99.90;;;;;;5041619;28;20250;-75
2024/03/01 05:05:34;;;;;;;3.92;2.90;;;9.10;99.90;;;;;;5042953;28;20214;-75
2024/03/01 05:08:01;;;;;;;4.70;3.13;;;9.10;99.90;;;;;;5039626;28;20218;-75
2024/03/01 05:10:27;;;;;;;4.63;2.97;;;9.10;99.90;;;;;;5036242;28;20645;-80
2024/03/01 05:12:54;;;;;;;3.08;2.88;;;9.10;99.90;;;;;;5041455;28;20860;-76
2024/03/01 05:15:23;;;;;;;4.28;3.08;;;9.10;99.90;;;;;;5044280;28;20289;-75
2024/03/01 05:17:50;;;;;;;5.82;3.13;;;9.10;99.90;;;;;;5040477;28;20242;-76
2024/03/01 05:20:17;;;;;;;4.07;3.30;;;9.10;99.90;;;;;;5037422;28;20922;-76
2024/03/01 05:22:44;;;;;;;3.75;3.45;;;9.00;99.90;;;;;;5038155;28;20216;-75
2024/03/01 05:25:21;;;;;;;3.40;3.10;;;9.00;99.90;;;;;;5041827;28;21142;-78
2024/03/01 05:27:49;;;;;;;3.72;2.78;;;9.00;99.90;;;;;;5035981;28;20207;-79
2024/03/01 05:30:18;;;;;;;5.53;2.72;;;9.00;99.90;;;;;;5039825;28;20257;-78
2024/03/01 05:32:48;;;;;;;5.10;2.90;;;9.00;99.90;;;;;;5041963;28;20315;-76
2024/03/01 05:35:16;;;;;;;4.05;2.60;;;8.90;99.90;;;;;;5041118;28;20284;-77
2024/03/01 05:37:44;;;;;;;3.58;2.50;;;8.90;99.90;;;;;;5041168;28;20210;-78
2024/03/01 05:40:14;;;;;;;4.15;2.97;;;8.90;99.90;;;;;;5039645;28;20235;-76
2024/03/01 05:42:41;;;;;;;3.88;3.13;;;8.90;99.90;;;;;;5038032;28;20224;-79
2024/03/01 05:45:10;;;;;;;5.13;3.30;;;8.90;99.90;;;;;;5038688;28;20242;-79
2024/03/01 05:47:37;;;;;;;3.50;2.63;;;8.90;99.90;;;;;;5041719;28;20300;-76
2024/03/01 05:50:06;;;;;;;7.13;3.53;;;8.90;99.90;;;;;;5036715;28;20235;-82
2024/03/01 05:52:34;;;;;;;3.85;3.55;;;8.90;99.90;;;;;;5034853;28;20223;-81
2024/03/01 05:55:01;;;;;;;5.53;3.30;;;8.90;99.90;;;;;;5037887;28;20218;-78
2024/03/01 05:57:29;;;;;;;2.97;2.67;;;8.90;99.90;;;;;;5040084;28;20231;-80
2024/03/01 05:59:55;;;;;;;4.32;3.10;;;8.80;99.90;;;;;;5036418;28;20227;-81
2024/03/01 06:02:23;;;;;;;3.60;3.15;;;8.80;99.90;;;;;;5043030;28;20254;-79
2024/03/01 06:04:50;;;;;;;2.92;2.72;;;8.80;99.90;;;;;;5039246;28;20234;-81
2024/03/01 06:07:18;;;;;;;3.05;2.72;;;8.80;99.90;;;;;;5039677;28;20220;-79
2024/03/01 06:09:46;;;;;;;3.30;2.97;;;8.80;99.90;;;;;;5035561;28;20308;-78
2024/03/01 06:12:13;;;;;;;4.75;3.10;;;8.80;99.90;;;;;;5040892;28;21020;-76
2024/03/01 06:14:40;;;;;;;5.05;3.22;;;8.90;99.90;;;;;;5040528;28;20211;-76
2024/03/01 06:17:07;;;;;;;4.82;3.25;;;8.90;99.90;;;;;;5038367;28;20251;-77
2024/03/01 06:19:34;;;;;;;3.42;3.13;;;8.90;99.90;;;;;;5042777;28;20259;-76
2024/03/01 06:22:01;;;;;;;3.97;3.55;;;8.90;99.90;;;;;;5040751;28;20285;-80
2024/03/01 06:24:29;;;;;;;4.25;3.45;;;8.90;99.90;;;;;;5044597;28;20735;-79
2024/03/01 06:26:56;;;;;;;4.10;3.33;;;8.90;99.90;;;;;;5039163;28;20866;-75
2024/03/01 06:29:23;;;;;;;5.38;4.05;;;8.90;99.90;;;;;;5041651;28;20304;-77
2024/03/01 06:31:50;;;;;;;4.70;4.22;;;8.90;99.90;;;;;;5039169;28;20886;-81
2024/03/01 06:34:17;;;;;;;3.90;3.60;;;8.80;99.90;;;;;;5039087;28;20238;-81
2024/03/01 06:36:44;;;;;;;3.72;3.42;;;8.80;99.90;;;;;;5039872;28;20219;-79
2024/03/01 06:39:11;;;;;;;4.20;3.80;;;8.80;99.90;;;;;;5041412;28;20227;-80
2024/03/01 06:41:40;;;;;;;5.53;3.42;;;8.80;99.90;;;;;;5034976;28;20644;-82
2024/03/01 06:44:07;;;;;;;2.97;2.78;;;8.90;99.90;;;;;;5038538;28;20226;-80
2024/03/01 06:46:35;;;;;;;3.50;3.17;;;8.90;99.90;;;;;;5036843;28;20238;-82
2024/03/01 06:49:02;;;;;;;3.55;3.25;;;8.90;99.90;;;;;;5038815;28;20226;-80
2024/03/01 06:51:30;;;;;;;5.53;3.67;;;8.90;99.90;;;;;;5029767;28;20268;-80
2024/03/01 06:53:57;;;;;;;3.47;3.17;;;8.90;99.90;;;;;;5032952;28;20221;-80
2024/03/01 06:56:24;;;;;;;4.18;3.30;;;8.90;99.90;;;;;;5033352;28;20218;-82
2024/03/01 06:58:52;;;;;;;3.67;3.38;;;8.90;99.90;;;;;;5036169;28;20227;-80
2024/03/01 07:01:19;;;;;;;5.32;3.72;;;8.90;99.90;;;;;;5038243;28;20312;-80
2024/03/01 07:03:46;;;;;;;3.40;3.20;;;8.90;99.90;;;;;;5041212;28;20191;-85
2024/03/01 07:06:13;;;;;;;4.85;2.75;;;8.90;99.90;;;;;;5034073;28;20227;-79
2024/03/01 07:08:40;;;;;;;6.10;3.63;;;8.90;99.90;;;;;;5038138;28;21037;-83
2024/03/01 07:11:08;;;;;;;3.97;3.20;;;9.00;99.90;;;;;;5034503;28;20298;-87
2024/03/01 07:13:35;;;;;;;4.82;3.17;;;9.00;99.90;;;;;;5032405;28;20753;-78
2024/03/01 07:16:04;;;;;;;5.55;3.42;;;9.00;99.90;;;;;;5036988;28;20230;-80
2024/03/01 07:18:31;;;;;;;6.75;4.03;;;9.00;99.90;;;;;;5038077;28;20246;-82
2024/03/01 07:20:58;;;;;;;4.20;3.80;;;9.00;99.90;;;;;;5038513;28;20242;-76
2024/03/01 07:23:25;;;;;;;3.67;3.38;;;8.90;99.90;;;;;;5045724;28;20216;-82
2024/03/01 07:25:51;;;;;;;4.45;4.03;;;8.90;99.90;;;;;;5037387;28;20315;-82
2024/03/01 07:28:18;;;;;;;4.32;3.78;;;8.90;99.90;;;;;;5038496;28;20842;-75
2024/03/01 07:30:45;;;;;;;4.40;4.00;;;8.90;99.90;;;;;;5039411;28;20264;-78
2024/03/01 07:33:14;;;;;;;3.55;3.25;;;8.90;99.90;;;;;;5044999;28;20231;-78
2024/03/01 07:35:41;;;;;;;4.15;3.60;;;8.90;99.90;;;;;;5041403;28;20648;-78
2024/03/01 07:38:08;;;;;;;3.88;3.45;;;9.00;99.90;;;;;;5041533;28;20214;-78
2024/03/01 07:40:35;;;;;;;3.63;3.28;;;9.00;99.90;;;;;;5041810;28;20256;-86
2024/03/01 07:43:02;;;;;;;6.13;5.45;;;9.10;99.90;;;;;;5039682;28;20216;-80
2024/03/01 07:45:29;;;;;;;5.65;4.50;;;9.10;99.90;;;;;;5038015;28;20224;-79
2024/03/01 07:47:56;;;;;;;5.22;4.57;;;9.10;99.90;;;;;;5042333;28;20225;-78
2024/03/01 07:50:24;;;;;;;4.93;4.47;;;9.00;99.90;;;;;;5039231;28;20230;-78
2024/03/01 07:52:51;;;;;;;4.55;3.97;;;9.00;99.90;;;;;;5042078;28;20276;-77
2024/03/01 07:55:18;;;;;;;6.22;4.28;;;9.00;99.90;;;;;;5040553;28;20300;-79
2024/03/01 07:57:45;;;;;;;7.10;4.43;;;9.00;99.90;;;;;;5039448;28;20268;-81
2024/03/01 08:00:13;;;;;;;4.07;3.70;;;9.10;99.90;;;;;;5041830;28;20222;-76
2024/03/01 08:02:40;;;;;;;22.65;5.78;;;9.10;99.90;;;;;;5042147;28;20235;-82
2024/03/01 08:05:09;;;;;;;4.20;3.80;;;9.10;99.90;;;;;;5036252;28;20606;-80
2024/03/01 08:07:37;;;;;;;4.55;4.15;;;9.00;99.90;;;;;;5042705;28;20709;-84
2024/03/01 08:10:07;;;;;;;4.45;3.70;;;9.00;99.90;;;;;;5041158;28;20334;-81
2024/03/01 08:12:35;;;;;;;5.15;4.57;;;9.00;99.90;;;;;;5034928;28;20221;-76
2024/03/01 08:15:08;;;;;;;4.57;3.70;;;9.00;99.90;;;;;;5039797;28;20272;-80
2024/03/01 08:17:35;;;;;;;4.32;3.92;;;9.10;99.90;;;;;;5037452;28;20219;-82
2024/03/01 08:20:11;;;;;;;4.47;3.88;;;9.10;99.90;;;;;;5038524;28;20227;-81
2024/03/01 08:22:39;;;;;;;5.05;3.95;;;9.10;99.90;;;;;;5036913;28;20296;-84
2024/03/01 08:25:10;;;;;;;5.82;3.80;;;9.10;99.90;;;;;;5040153;28;20305;-78
2024/03/01 08:27:37;;;;;;;4.65;4.20;;;9.10;99.90;;;;;;5037844;28;20292;-79
2024/03/01 08:30:14;;;;;;;3.97;3.67;;;9.10;99.90;;;;;;5041534;28;20597;-83
2024/03/01 08:32:45;;;;;;;4.53;4.13;;;9.30;99.90;;;;;;5036573;28;20261;-78
2024/03/01 08:35:15;;;;;;;4.43;4.03;;;9.50;99.90;;;;;;5042931;28;20229;-82
2024/03/01 08:37:44;;;;;;;6.40;4.68;;;9.50;99.90;;;;;;5038779;28;20247;-85
2024/03/01 08:40:37;;;;;;;7.85;5.32;;;9.50;99.90;;;;;;5045071;28;20258;-81
2024/03/01 08:43:04;;;;;;;6.22;4.90;;;9.50;99.90;;;;;;5036332;28;20775;-81
2024/03/01 08:45:42;;;;;;;6.20;3.97;;;9.50;99.90;;;;;;5045817;28;20273;-82
2024/03/01 08:48:16;;;;;;;5.18;4.00;;;9.50;99.90;;;;;;5039565;28;20288;-82
2024/03/01 08:50:49;;;;;;;6.03;4.63;;;9.50;99.90;;;;;;5041908;28;20247;-83
2024/03/01 08:53:52;;;;;;;4.63;3.60;;;9.60;99.90;;;;;;5045163;28;20570;-76
2024/03/01 08:56:21;;;;;;;4.25;3.70;;;9.60;99.90;;;;;;5038679;28;20254;-79
2024/03/01 08:58:49;;;;;;;6.47;4.30;;;9.60;99.90;;;;;;5039864;28;20231;-78
2024/03/01 09:01:42;;;;;;;4.82;4.00;;;9.70;99.90;;;;;;5039126;28;20250;-79
2024/03/01 09:04:13;;;;;;;4.40;3.97;;;9.70;99.90;;;;;;5042252;28;20289;-79
2024/03/01 09:06:40;;;;;;;4.00;3.67;;;9.60;99.90;;;;;;5041217;28;20979;-84
2024/03/01 09:09:08;;;;;;;4.63;3.95;;;9.60;99.90;;;;;;5036524;28;20848;-76
2024/03/01 09:11:37;;;;;;;6.45;4.22;;;9.70;99.90;;;;;;5042704;28;20242;-81
2024/03/01 09:14:04;;;;;;;5.95;4.50;;;9.70;99.90;;;;;;5039927;28;20199;-82
2024/03/01 09:16:31;;;;;;;4.18;3.80;;;9.70;99.90;;;;;;5038766;28;20283;-79
2024/03/01 09:18:58;;;;;;;4.03;3.67;;;9.70;99.90;;;;;;5036457;28;20312;-79
2024/03/01 09:21:42;;;;;;;4.70;3.75;;;9.80;99.90;;;;;;5033919;28;20309;-81
2024/03/01 09:24:13;;;;;;;6.80;4.50;;;9.90;99.90;;;;;;5041725;28;20298;-77
2024/03/01 09:26:42;;;;;;;5.53;4.70;;;9.90;99.90;;;;;;5038184;28;20298;-80
2024/03/01 09:29:23;;;;;;;5.47;4.15;;;9.80;99.90;;;;;;5039832;28;20234;-79
2024/03/01 09:31:50;;;;;;;7.32;4.80;;;9.80;99.90;;;;;;5041085;28;20249;-84
2024/03/01 09:34:18;;;;;;;4.65;4.18;;;9.90;99.90;;;;;;5043463;28;20222;-76
2024/03/01 09:36:45;;;;;;;8.18;4.60;;;9.90;99.90;;;;;;5034013;28;20227;-78
2024/03/01 09:39:12;;;;;;;5.45;3.88;;;9.90;99.90;;;;;;5037462;28;20288;-77
2024/03/01 09:41:50;;;;;;;5.25;4.30;;;9.90;99.90;;;;;;5032675;28;20224;-82
2024/03/01 09:44:29;;;;;;;4.25;3.85;;;9.90;99.90;;;;;;5041707;28;20214;-79
2024/03/01 09:47:08;;;;;;;4.40;3.92;;;9.90;99.90;;;;;;5037618;28;20756;-77
2024/03/01 09:49:55;;;;;;;7.57;5.53;;;9.90;99.90;;;;;;5035913;28;20253;-79
2024/03/01 09:52:38;;;;;;;6.00;5.40;;;9.90;99.90;;;;;;5036809;28;20280;-76
2024/03/01 09:55:16;;;;;;;6.15;5.40;;;9.90;99.90;;;;;;5034824;28;20226;-78
2024/03/01 09:57:53;;;;;;;8.32;6.28;;;9.90;99.90;;;;;;5038972;28;20284;-78
2024/03/01 10:00:27;;;;;;;5.88;5.13;;;9.90;99.90;;;;;;5038632;28;20226;-78
2024/03/01 10:03:04;;;;;;;5.30;4.72;;;9.90;99.90;;;;;;5038071;28;20226;-79
2024/03/01 10:05:56;;;;;;;7.05;4.80;;;9.90;99.90;;;;;;5031540;28;20628;-77
2024/03/01 10:08:29;;;;;;;4.93;4.35;;;9.90;99.90;;;;;;5034796;28;20913;-76
2024/03/01 10:11:15;;;;;;;9.38;5.38;;;9.90;99.90;;;;;;5035294;28;20313;-78
2024/03/01 10:13:54;;;;;;;5.88;4.55;;;9.90;99.90;;;;;;5036370;28;20226;-76
2024/03/01 10:16:30;;;;;;;4.47;3.78;;;9.90;99.90;;;;;;5033661;28;20246;-76
2024/03/01 10:19:06;;;;;;;5.97;4.15;;;9.90;99.90;;;;;;5040869;28;20754;-76
2024/03/01 10:21:43;;;;;;;5.47;4.28;;;9.90;99.90;;;;;;5038461;28;20757;-78
2024/03/01 10:24:27;;;;;;;4.00;3.65;;;9.90;99.90;;;;;;5036183;28;20207;-77
2024/03/01 10:27:03;;;;;;;5.97;3.92;;;9.80;99.90;;;;;;5036743;28;20268;-77
2024/03/01 10:29:45;;;;;;;4.03;3.63;;;9.90;99.90;;;;;;5035405;28;20226;-77
2024/03/01 10:32:19;;;;;;;5.47;4.85;;;9.80;99.90;;;;;;5037172;28;20697;-77
2024/03/01 10:34:53;;;;;;;7.28;3.67;;;9.80;99.90;;;;;;5038551;28;20297;-82
2024/03/01 10:37:29;;;;;;;5.93;4.00;;;9.70;99.90;;;;;;5034895;28;20781;-77
2024/03/01 10:40:07;;;;;;;4.35;3.95;;;9.80;99.90;;;;;;5033595;28;20214;-79
2024/03/01 10:42:40;;;;;;;3.60;3.30;;;9.80;99.90;;;;;;5039507;28;20238;-78
2024/03/01 10:45:18;;;;;;;5.82;3.65;;;9.90;99.90;;;;;;5042796;28;20989;-85
2024/03/01 10:47:45;;;;;;;5.47;3.80;;;9.90;99.90;;;;;;5038598;28;20722;-78
2024/03/01 10:50:19;;;;;;;6.47;3.45;;;9.90;99.90;;;;;;5040250;28;20235;-79
2024/03/01 10:52:55;;;;;;;4.78;3.78;;;10.00;99.90;;;;;;5040784;28;20224;-82
2024/03/01 10:55:24;;;;;;;6.05;3.53;;;10.00;99.90;;;;;;5037898;28;20648;-77
2024/03/01 11:00:06;;;;;;;5.18;3.90;;;10.10;99.90;;;;;;5080187;27;21055;-77
2024/03/01 11:02:41;;;;;;;6.47;4.57;;;10.10;99.90;;;;;;5052545;28;20781;-77
2024/03/01 11:05:17;;;;;;;4.85;4.32;;;10.20;99.90;;;;;;5048331;28;20245;-77
2024/03/01 11:07:52;;;;;;;6.32;4.55;;;10.30;99.90;;;;;;5046348;28;20239;-77
2024/03/01 11:10:26;;;;;;;7.03;4.55;;;10.40;99.90;;;;;;5055736;28;20241;-77
2024/03/01 11:12:57;;;;;;;6.20;4.80;;;10.50;99.90;;;;;;5065539;28;20324;-77
2024/03/01 11:15:29;;;;;;;6.85;5.40;;;10.50;99.90;;;;;;5068285;28;20246;-78
2024/03/01 11:17:57;;;;;;;6.47;5.18;;;10.50;99.90;;;;;;5053238;28;20295;-77
2024/03/01 11:20:29;;;;;;;6.93;5.57;;;10.40;99.90;;;;;;5054488;28;20291;-75
2024/03/01 11:23:03;;;;;;;5.57;4.68;;;10.50;99.90;;;;;;5052675;28;20258;-77
2024/03/01 11:25:41;;;;;;;6.88;4.57;;;10.60;99.90;;;;;;5052655;28;20233;-78
2024/03/01 11:28:11;;;;;;;5.45;4.95;;;10.60;99.90;;;;;;5067438;28;20346;-78
2024/03/01 11:30:47;;;;;;;6.75;5.18;;;10.70;99.90;;;;;;5066922;28;20237;-77
2024/03/01 11:33:16;;;;;;;6.30;4.60;;;10.70;99.90;;;;;;5051621;28;20241;-76
2024/03/01 11:35:45;;;;;;;5.60;4.75;;;10.70;99.90;;;;;;5053403;28;20492;-77
2024/03/01 11:38:28;;;;;;;7.45;4.55;;;10.80;99.90;;;;;;5074887;28;20863;-76
2024/03/01 11:41:11;;;;;;;6.15;5.07;;;10.90;99.90;;;;;;5076293;28;20241;-76
2024/03/01 11:43:51;;;;;;;8.35;4.57;;;11.00;99.90;;;;;;5069912;28;20220;-78
2024/03/01 11:46:40;;;;;;;6.00;4.65;;;11.00;99.90;;;;;;5072732;27;20232;-77
2024/03/01 11:49:21;;;;;;;5.90;5.00;;;11.00;99.90;;;;;;5071606;28;20427;-77
2024/03/01 11:51:56;;;;;;;8.20;5.05;;;11.00;99.90;;;;;;5071645;28;20299;-78
2024/03/01 11:54:47;;;;;;;5.28;4.75;;;11.00;99.90;;;;;;5074661;28;20201;-76
2024/03/01 11:57:26;;;;;;;5.55;4.60;;;11.00;99.90;;;;;;5051849;28;20767;-78
2024/03/01 12:00:09;;;;;;;8.05;5.00;;;11.00;99.90;;;;;;5049470;28;20697;-77
2024/03/01 12:02:50;;;;;;;4.95;4.38;;;10.90;99.90;;;;;;5049399;28;20299;-76
2024/03/01 12:05:25;;;;;;;6.25;4.75;;;10.90;99.90;;;;;;5049795;28;20716;-77
2024/03/01 12:08:22;;;;;;;6.55;4.82;;;10.90;99.90;;;;;;5052980;28;20217;-76
2024/03/01 12:11:08;;;;;;;8.55;4.60;;;10.90;99.90;;;;;;5042126;28;20223;-77
2024/03/01 12:13:51;;;;;;;7.03;4.80;;;10.80;99.90;;;;;;5035742;28;20281;-76
2024/03/01 12:16:26;;;;;;;7.57;4.30;;;10.80;99.90;;;;;;5053771;28;20275;-77
2024/03/01 12:19:03;;;;;;;8.32;5.05;;;10.80;99.90;;;;;;5058809;28;20233;-76
2024/03/01 12:21:43;;;;;;;4.75;3.75;;;10.70;99.90;;;;;;5057278;28;20250;-77
2024/03/01 12:24:18;;;;;;;3.92;3.50;;;10.70;99.90;;;;;;5058909;28;20793;-76
2024/03/01 12:26:58;;;;;;;4.28;3.88;;;10.70;99.90;;;;;;5056686;28;20241;-77
2024/03/01 12:29:41;;;;;;;5.88;4.53;;;10.70;99.90;;;;;;5058804;28;20312;-76
2024/03/01 12:32:16;;;;;;;7.47;3.78;;;10.70;99.90;;;;;;5060467;28;20283;-77
2024/03/01 12:34:59;;;;;;;5.82;4.32;;;10.70;99.90;;;;;;5058046;28;20226;-78
2024/03/01 12:37:34;;;;;;;8.05;4.10;;;10.60;99.90;;;;;;5059260;28;20299;-77
2024/03/01 12:40:16;;;;;;;6.13;3.80;;;10.50;99.90;;;;;;5061868;28;21409;-76
2024/03/01 12:43:00;;;;;;;3.88;3.40;;;10.60;99.90;;;;;;5058725;28;20259;-77
2024/03/01 12:45:37;;;;;;;6.82;3.95;;;10.60;99.90;;;;;;5057944;28;20764;-77
2024/03/01 12:48:18;;;;;;;4.03;3.63;;;10.60;99.90;;;;;;5057519;28;20314;-76
2024/03/01 12:50:58;;;;;;;7.30;4.20;;;10.50;99.90;;;;;;5058251;28;20218;-77
2024/03/01 12:53:40;;;;;;;4.40;3.83;;;10.50;99.90;;;;;;5039270;28;20260;-76
2024/03/01 12:56:21;;;;;;;6.88;3.88;;;10.50;99.90;;;;;;5042474;28;20664;-77
2024/03/01 12:59:03;;;;;;;6.30;3.95;;;10.50;99.90;;;;;;5042477;28;20222;-78
2024/03/01 13:01:34;;;;;;;6.57;4.28;;;10.50;99.90;;;;;;5052123;28;20226;-77
2024/03/01 13:04:16;;;;;;;5.32;3.85;;;10.50;99.90;;;;;;5062001;28;20275;-77
2024/03/01 13:06:47;;;;;;;5.63;3.45;;;10.50;99.90;;;;;;5056455;28;20222;-77
2024/03/01 13:09:19;;;;;;;6.10;3.88;;;10.50;99.90;;;;;;5059105;28;20737;-78
2024/03/01 13:11:55;;;;;;;4.50;3.55;;;10.50;99.90;;;;;;5057898;28;20224;-77
2024/03/01 13:14:35;;;;;;;8.70;4.35;;;10.40;99.90;;;;;;5058554;28;20202;-76